Main page
METAR-TAF:

METAR-TAF

Airports :

Uytash Airport

Makhachkala, Russia

latitude: 42-49-01N, longitude: 047-39-08E, elevation: 4 m

Current weather observation

The report was made 34 minutes ago, at 16:00 UTC
Wind 16 kt from the South/Southeast
Temperature 16°C
Humidity 82%
Pressure 1021 hPa
Visibility 10 km or more
Scattered clouds at a height of 1400 ft
Broken clouds at a height of 2200 ft

METAR: URML 251600Z 16008MPS 9999 SCT014 BKN022 16/13 Q1021 R14/01//70 NOSIG RMK QFE766/1021

Time: 19:34 (16:34 UTC)

Forecast

The report was made 2 hours and 34 minutes ago, at 14:00 UTC
Forecast valid from 25 at 15 UTC to 25 at 24 UTC
Wind 16 kt from the South/Southeast with gusts up to 27 kt
Visibility: 6000 m
Broken clouds at a height of 1600 ft

TAF: URML 251400Z 2515/2524 15008G14MPS 6000 BKN016

Weather observations and forecasts of more than 4000 airports (METAR and TAF reports).

The available stations are represented by yellow and red dots on the map.

Hover mouse over dot to see the name of the station.

Then click to see weather observations and forecasts.

To change the map : click on the green buttons with a black cross to zoom in, on the green button with a dash to zoom out, or on the green arrows for adjacent maps.


METAR-TAF: